createdAt,value
2024-02-14T00:01:14.893Z,100.00
2024-02-14T00:03:42.390Z,100.00
2024-02-14T00:06:09.507Z,100.00
2024-02-14T00:08:37.079Z,100.00
2024-02-14T00:11:04.136Z,100.00
2024-02-14T00:13:31.635Z,100.00
2024-02-14T00:15:58.518Z,100.00
2024-02-14T00:18:25.893Z,100.00
2024-02-14T00:20:53.063Z,100.00
2024-02-14T00:23:20.384Z,100.00
2024-02-14T00:25:47.267Z,100.00
2024-02-14T00:28:14.561Z,100.00
2024-02-14T00:30:41.395Z,100.00
2024-02-14T00:33:08.966Z,100.00
2024-02-14T00:35:36.197Z,100.00
2024-02-14T00:38:03.625Z,100.00
2024-02-14T00:40:30.588Z,100.00
2024-02-14T00:42:58.233Z,100.00
2024-02-14T00:45:25.449Z,100.00
2024-02-14T00:47:52.816Z,100.00
2024-02-14T00:50:20.504Z,100.00
2024-02-14T00:52:47.715Z,100.00
2024-02-14T00:55:14.879Z,100.00
2024-02-14T00:57:42.478Z,100.00
2024-02-14T01:00:10.191Z,100.00
2024-02-14T01:02:37.667Z,100.00
2024-02-14T01:05:05.989Z,100.00
2024-02-14T01:07:33.406Z,100.00
2024-02-14T01:10:00.351Z,100.00
2024-02-14T01:12:27.669Z,100.00
2024-02-14T01:14:54.933Z,100.00
2024-02-14T01:17:22.184Z,100.00
2024-02-14T01:19:50.078Z,100.00
2024-02-14T01:22:17.719Z,100.00
2024-02-14T01:24:44.906Z,100.00
2024-02-14T01:27:14.538Z,100.00
2024-02-14T01:29:41.643Z,100.00
2024-02-14T01:32:08.858Z,100.00
2024-02-14T01:34:36.015Z,100.00
2024-02-14T01:37:03.678Z,100.00
2024-02-14T01:39:30.691Z,100.00
2024-02-14T01:41:57.912Z,100.00
2024-02-14T01:44:24.886Z,100.00
2024-02-14T01:46:54.244Z,100.00
2024-02-14T01:49:21.212Z,100.00
2024-02-14T01:51:48.450Z,100.00
2024-02-14T01:54:16.196Z,100.00
2024-02-14T01:56:46.282Z,100.00
2024-02-14T01:59:14.378Z,100.00
2024-02-14T02:01:43.986Z,100.00
2024-02-14T02:04:12.999Z,100.00
2024-02-14T02:06:42.880Z,100.00
2024-02-14T02:09:10.238Z,100.00
2024-02-14T02:11:49.183Z,100.00
2024-02-14T02:14:16.851Z,100.00
2024-02-14T02:16:47.242Z,100.00
2024-02-14T02:19:15.174Z,100.00
2024-02-14T02:21:48.358Z,100.00
2024-02-14T02:24:15.303Z,100.00
2024-02-14T02:26:42.603Z,100.00
2024-02-14T02:29:12.379Z,100.00
2024-02-14T02:31:39.645Z,100.00
2024-02-14T02:34:06.937Z,100.00
2024-02-14T02:36:34.591Z,100.00
2024-02-14T02:39:04.554Z,100.00
2024-02-14T02:41:33.058Z,100.00
2024-02-14T02:44:00.252Z,100.00
2024-02-14T02:46:27.545Z,100.00
2024-02-14T02:48:56.384Z,100.00
2024-02-14T02:51:23.741Z,100.00
2024-02-14T02:53:50.654Z,100.00
2024-02-14T02:56:17.910Z,100.00
2024-02-14T02:58:45.493Z,100.00
2024-02-14T03:01:15.765Z,100.00
2024-02-14T03:03:43.962Z,100.00
2024-02-14T03:06:13.590Z,100.00
2024-02-14T03:08:40.695Z,100.00
2024-02-14T03:11:08.903Z,100.00
2024-02-14T03:13:37.137Z,100.00
2024-02-14T03:16:05.431Z,100.00
2024-02-14T03:18:33.494Z,100.00
2024-02-14T03:21:00.937Z,100.00
2024-02-14T03:23:29.342Z,100.00
2024-02-14T03:25:56.734Z,100.00
2024-02-14T03:28:23.737Z,100.00
2024-02-14T03:30:50.890Z,100.00
2024-02-14T03:33:18.018Z,100.00
2024-02-14T03:35:45.368Z,100.00
2024-02-14T03:38:12.546Z,100.00
2024-02-14T03:40:40.016Z,100.00
2024-02-14T03:43:13.145Z,100.00
2024-02-14T03:45:40.502Z,100.00
2024-02-14T03:48:07.739Z,100.00
2024-02-14T03:50:35.286Z,100.00
2024-02-14T03:53:03.014Z,100.00
2024-02-14T03:55:31.444Z,100.00
2024-02-14T03:58:04.539Z,100.00
2024-02-14T04:00:32.506Z,100.00
2024-02-14T04:03:01.888Z,100.00
2024-02-14T04:05:30.599Z,100.00
2024-02-14T04:07:57.696Z,100.00
2024-02-14T04:10:25.337Z,100.00
2024-02-14T04:12:52.393Z,100.00
2024-02-14T04:15:19.667Z,100.00
2024-02-14T04:17:46.653Z,100.00
2024-02-14T04:20:14.045Z,100.00
2024-02-14T04:22:41.021Z,100.00
2024-02-14T04:25:09.172Z,100.00
2024-02-14T04:27:36.038Z,100.00
2024-02-14T04:30:05.866Z,100.00
2024-02-14T04:32:33.305Z,100.00
2024-02-14T04:35:05.401Z,100.00
2024-02-14T04:37:34.498Z,100.00
2024-02-14T04:40:06.954Z,100.00
2024-02-14T04:42:34.466Z,100.00
2024-02-14T04:45:02.687Z,100.00
2024-02-14T04:47:31.024Z,100.00
2024-02-14T04:49:58.783Z,100.00
2024-02-14T04:52:25.723Z,100.00
2024-02-14T04:54:55.439Z,100.00
2024-02-14T04:57:22.365Z,100.00
2024-02-14T04:59:49.607Z,100.00
2024-02-14T05:02:16.735Z,100.00
2024-02-14T05:04:47.131Z,100.00
2024-02-14T05:07:14.668Z,100.00
2024-02-14T05:09:41.931Z,100.00
2024-02-14T05:12:11.959Z,100.00
2024-02-14T05:14:39.772Z,100.00
2024-02-14T05:17:06.894Z,100.00
2024-02-14T05:19:34.207Z,100.00
2024-02-14T05:22:01.252Z,100.00
2024-02-14T05:24:31.735Z,100.00
2024-02-14T05:26:58.757Z,100.00
2024-02-14T05:29:26.102Z,100.00
2024-02-14T05:31:56.647Z,100.00
2024-02-14T05:34:24.199Z,100.00
2024-02-14T05:36:52.182Z,100.00
2024-02-14T05:39:21.891Z,100.00
2024-02-14T05:41:50.385Z,100.00
2024-02-14T05:44:17.788Z,100.00
2024-02-14T05:46:44.836Z,100.00
2024-02-14T05:49:12.256Z,100.00
2024-02-14T05:51:39.214Z,100.00
2024-02-14T05:54:06.724Z,100.00
2024-02-14T05:56:33.738Z,100.00
2024-02-14T05:59:00.975Z,100.00
2024-02-14T06:01:28.357Z,100.00
2024-02-14T06:03:55.816Z,100.00
2024-02-14T06:06:24.734Z,100.00
2024-02-14T06:08:52.047Z,100.00
2024-02-14T06:11:22.307Z,100.00
2024-02-14T06:13:49.485Z,100.00
2024-02-14T06:16:16.610Z,100.00
2024-02-14T06:18:45.455Z,100.00
2024-02-14T06:21:12.582Z,100.00
2024-02-14T06:23:40.551Z,100.00
2024-02-14T06:26:08.124Z,100.00
2024-02-14T06:28:35.337Z,100.00
2024-02-14T06:31:02.354Z,100.00
2024-02-14T06:33:29.966Z,100.00
2024-02-14T06:35:57.461Z,100.00
2024-02-14T06:38:24.943Z,100.00
2024-02-14T06:40:52.305Z,100.00
2024-02-14T06:43:19.562Z,100.00
2024-02-14T06:45:49.024Z,100.00
2024-02-14T06:48:16.393Z,100.00
2024-02-14T06:50:46.030Z,100.00
2024-02-14T06:53:13.251Z,100.00
2024-02-14T06:55:40.301Z,100.00
2024-02-14T06:58:07.750Z,100.00
2024-02-14T07:00:35.147Z,100.00
2024-02-14T07:03:02.656Z,100.00
2024-02-14T07:05:32.771Z,100.00
2024-02-14T07:08:00.071Z,100.00
2024-02-14T07:10:27.197Z,100.00
2024-02-14T07:12:54.450Z,100.00
2024-02-14T07:15:21.936Z,100.00
2024-02-14T07:17:49.351Z,100.00
2024-02-14T07:20:18.537Z,100.00
2024-02-14T07:22:48.828Z,100.00
2024-02-14T07:25:15.924Z,90.38
2024-02-14T07:27:43.406Z,85.12
2024-02-14T07:30:10.780Z,82.61
2024-02-14T07:32:38.285Z,92.77
2024-02-14T07:35:06.493Z,100.00
2024-02-14T07:37:33.896Z,97.79
2024-02-14T07:40:00.984Z,90.97
2024-02-14T07:42:28.421Z,78.30
2024-02-14T07:44:57.399Z,67.03
2024-02-14T07:47:24.852Z,62.03
2024-02-14T07:49:54.391Z,56.85
2024-02-14T07:52:22.518Z,53.87
2024-02-14T07:54:52.871Z,58.56
2024-02-14T07:57:20.292Z,64.17
2024-02-14T07:59:47.290Z,70.31
2024-02-14T08:02:15.046Z,76.92
2024-02-14T08:04:42.173Z,84.17
2024-02-14T08:07:10.242Z,99.32
2024-02-14T08:09:37.468Z,100.00
2024-02-14T08:12:04.865Z,100.00
2024-02-14T08:14:32.422Z,100.00
2024-02-14T08:16:59.721Z,100.00
2024-02-14T08:19:26.901Z,100.00
2024-02-14T08:21:58.959Z,100.00
2024-02-14T08:24:27.202Z,100.00
2024-02-14T08:26:56.873Z,100.00
2024-02-14T08:29:24.274Z,100.00
2024-02-14T08:31:51.760Z,100.00
2024-02-14T08:34:19.098Z,100.00
2024-02-14T08:36:46.671Z,100.00
2024-02-14T08:39:13.892Z,100.00
2024-02-14T08:41:46.147Z,100.00
2024-02-14T08:44:13.216Z,100.00
2024-02-14T08:46:43.434Z,100.00
2024-02-14T08:49:13.133Z,100.00
2024-02-14T08:51:40.686Z,100.00
2024-02-14T08:54:07.753Z,99.69
2024-02-14T08:56:35.403Z,100.00
2024-02-14T08:59:03.821Z,89.70
2024-02-14T09:01:31.697Z,93.97
2024-02-14T09:04:01.527Z,92.00
2024-02-14T09:06:29.246Z,87.02
2024-02-14T09:09:01.367Z,82.31
2024-02-14T09:11:28.810Z,81.72
2024-02-14T09:14:00.647Z,81.03
2024-02-14T09:16:27.977Z,83.98
2024-02-14T09:18:55.114Z,82.17
2024-02-14T09:21:23.189Z,79.86
2024-02-14T09:23:50.230Z,78.83
2024-02-14T09:26:20.355Z,74.00
2024-02-14T09:28:47.439Z,72.04
2024-02-14T09:31:18.640Z,75.34
2024-02-14T09:33:46.995Z,69.69
2024-02-14T09:36:15.496Z,67.37
2024-02-14T09:38:42.882Z,65.28
2024-02-14T09:41:17.755Z,63.70
2024-02-14T09:43:45.575Z,61.53
2024-02-14T09:46:16.473Z,62.72
2024-02-14T09:48:44.997Z,62.01
2024-02-14T09:51:13.833Z,59.91
2024-02-14T09:53:41.533Z,59.52
2024-02-14T09:56:13.446Z,57.61
2024-02-14T09:58:41.628Z,58.43
2024-02-14T10:01:08.961Z,58.78
2024-02-14T10:03:38.645Z,58.18
2024-02-14T10:06:06.260Z,57.95
2024-02-14T10:08:33.351Z,55.95
2024-02-14T10:11:01.228Z,57.23
2024-02-14T10:13:29.465Z,58.17
2024-02-14T10:15:57.232Z,57.16
2024-02-14T10:18:24.650Z,55.90
2024-02-14T10:20:56.049Z,56.21
2024-02-14T10:23:25.740Z,55.63
2024-02-14T10:25:57.708Z,55.02
2024-02-14T10:28:30.213Z,54.03
2024-02-14T10:31:06.683Z,53.76
2024-02-14T10:33:34.056Z,53.42
2024-02-14T10:36:04.663Z,52.69
2024-02-14T10:38:35.079Z,53.99
2024-02-14T10:41:06.317Z,54.29
2024-02-14T10:43:37.540Z,54.05
2024-02-14T10:46:09.200Z,56.04
2024-02-14T10:48:40.165Z,55.49
2024-02-14T10:51:09.991Z,55.51
2024-02-14T10:53:40.332Z,54.37
2024-02-14T10:56:08.769Z,52.47
2024-02-14T10:58:36.202Z,52.76
2024-02-14T11:01:04.542Z,52.76
2024-02-14T11:03:32.234Z,53.08
2024-02-14T11:06:03.951Z,53.69
2024-02-14T11:08:33.553Z,51.35
2024-02-14T11:11:01.683Z,51.45
2024-02-14T11:13:30.644Z,51.71
2024-02-14T11:16:01.552Z,51.20
2024-02-14T11:18:32.283Z,50.65
2024-02-14T11:20:59.844Z,50.15
2024-02-14T11:23:29.617Z,49.86
2024-02-14T11:26:04.557Z,50.32
2024-02-14T11:28:31.823Z,49.85
2024-02-14T11:31:06.844Z,50.30
2024-02-14T11:33:34.348Z,49.76
2024-02-14T11:36:08.413Z,49.68
2024-02-14T11:38:35.714Z,48.38
2024-02-14T11:41:05.012Z,48.88
2024-02-14T11:43:33.162Z,47.13
2024-02-14T11:46:00.560Z,46.87
2024-02-14T11:48:29.792Z,47.64
2024-02-14T11:50:57.449Z,47.24
2024-02-14T11:53:27.051Z,47.44
2024-02-14T11:55:54.304Z,49.41
2024-02-14T11:58:21.266Z,50.50
2024-02-14T12:00:51.888Z,52.17
2024-02-14T12:03:23.236Z,50.96
2024-02-14T12:05:52.689Z,51.99
2024-02-14T12:08:22.956Z,51.81
2024-02-14T12:10:53.169Z,52.78
2024-02-14T12:13:23.669Z,54.00
2024-02-14T12:15:52.456Z,54.97
2024-02-14T12:18:21.516Z,54.57
2024-02-14T12:20:55.603Z,55.20
2024-02-14T12:23:24.780Z,54.82
2024-02-14T12:25:52.099Z,55.75
2024-02-14T12:28:19.632Z,55.00
2024-02-14T12:30:58.589Z,54.41
2024-02-14T12:33:28.895Z,54.11
2024-02-14T12:35:57.754Z,53.37
2024-02-14T12:38:27.539Z,54.84
2024-02-14T12:40:55.778Z,55.87
2024-02-14T12:43:23.067Z,56.60
2024-02-14T12:45:52.956Z,55.86
2024-02-14T12:48:24.188Z,56.03
2024-02-14T12:50:54.081Z,57.59
2024-02-14T12:53:22.123Z,56.48
2024-02-14T12:55:49.460Z,57.13
2024-02-14T12:58:16.815Z,58.43
2024-02-14T13:00:45.960Z,57.97
2024-02-14T13:03:16.518Z,58.46
2024-02-14T13:05:46.377Z,57.93
2024-02-14T13:08:13.488Z,57.57
2024-02-14T13:10:40.938Z,57.25
2024-02-14T13:13:07.900Z,58.05
2024-02-14T13:15:35.570Z,59.73
2024-02-14T13:18:04.344Z,59.83
2024-02-14T13:20:32.343Z,58.95
2024-02-14T13:22:59.848Z,58.97
2024-02-14T13:25:29.513Z,59.80
2024-02-14T13:28:00.124Z,60.82
2024-02-14T13:30:27.587Z,61.12
2024-02-14T13:32:54.623Z,60.70
2024-02-14T13:35:22.696Z,59.95
2024-02-14T13:37:49.992Z,57.11
2024-02-14T13:40:19.738Z,54.27
2024-02-14T13:42:46.668Z,53.49
2024-02-14T13:45:13.958Z,52.94
2024-02-14T13:47:41.507Z,53.40
2024-02-14T13:50:10.062Z,54.36
2024-02-14T13:52:37.786Z,54.05
2024-02-14T13:55:09.138Z,54.24
2024-02-14T13:57:40.326Z,53.89
2024-02-14T14:00:12.828Z,53.57
2024-02-14T14:02:43.539Z,53.01
2024-02-14T14:05:12.012Z,53.99
2024-02-14T14:07:53.125Z,53.47
2024-02-14T14:10:27.554Z,53.17
2024-02-14T14:12:55.006Z,54.04
2024-02-14T14:15:25.752Z,53.40
2024-02-14T14:17:53.422Z,53.20
2024-02-14T14:20:21.662Z,54.15
2024-02-14T14:22:49.097Z,53.30
2024-02-14T14:25:16.684Z,54.18
2024-02-14T14:27:44.424Z,53.30
2024-02-14T14:30:13.328Z,52.00
2024-02-14T14:32:41.860Z,51.83
2024-02-14T14:35:12.315Z,52.18
2024-02-14T14:37:40.038Z,52.03
2024-02-14T14:40:09.537Z,53.36
2024-02-14T14:42:37.223Z,53.01
2024-02-14T14:45:05.200Z,53.51
2024-02-14T14:47:32.235Z,54.00
2024-02-14T14:50:00.545Z,53.83
2024-02-14T14:52:27.969Z,54.11
2024-02-14T14:54:55.211Z,54.33
2024-02-14T14:57:22.575Z,54.86
2024-02-14T14:59:50.155Z,54.94
2024-02-14T15:02:17.662Z,55.63
2024-02-14T15:04:47.677Z,55.46
2024-02-14T15:07:14.992Z,55.53
2024-02-14T15:09:43.741Z,55.33
2024-02-14T15:12:11.478Z,55.59
2024-02-14T15:14:41.336Z,55.80
2024-02-14T15:17:08.367Z,56.07
2024-02-14T15:19:35.683Z,55.86
2024-02-14T15:22:05.256Z,56.21
2024-02-14T15:24:32.578Z,56.57
2024-02-14T15:27:03.662Z,56.69
2024-02-14T15:29:49.992Z,56.12
2024-02-14T15:32:35.752Z,56.72
2024-02-14T15:35:06.258Z,57.14
2024-02-14T15:37:33.436Z,57.07
2024-02-14T15:40:00.910Z,57.92
2024-02-14T15:42:30.197Z,57.81
2024-02-14T15:44:57.549Z,58.19
2024-02-14T15:47:24.598Z,58.75
2024-02-14T15:49:54.431Z,59.20
2024-02-14T15:52:21.831Z,58.99
2024-02-14T15:54:49.207Z,60.02
2024-02-14T15:57:16.393Z,61.00
2024-02-14T15:59:44.203Z,60.71
2024-02-14T16:02:11.502Z,60.87
2024-02-14T16:04:39.816Z,61.53
2024-02-14T16:07:06.852Z,61.02
2024-02-14T16:09:38.024Z,61.68
2024-02-14T16:12:05.240Z,62.55
2024-02-14T16:14:33.608Z,63.07
2024-02-14T16:17:00.801Z,63.23
2024-02-14T16:19:28.367Z,63.19
2024-02-14T16:22:02.312Z,63.77
2024-02-14T16:24:37.809Z,64.25
2024-02-14T16:27:08.517Z,64.65
2024-02-14T16:29:39.577Z,65.28
2024-02-14T16:32:08.260Z,65.19
2024-02-14T16:34:35.816Z,66.00
2024-02-14T16:37:04.142Z,66.20
2024-02-14T16:39:41.278Z,65.91
2024-02-14T16:42:11.073Z,66.97
2024-02-14T16:44:39.490Z,67.29
2024-02-14T16:47:06.582Z,66.25
2024-02-14T16:49:34.036Z,67.67
2024-02-14T16:52:01.496Z,68.66
2024-02-14T16:54:29.778Z,68.19
2024-02-14T16:57:06.659Z,68.11
2024-02-14T16:59:34.699Z,68.98
2024-02-14T17:02:02.226Z,69.88
2024-02-14T17:04:29.673Z,70.50
2024-02-14T17:07:01.667Z,70.34
2024-02-14T17:09:29.462Z,71.46
2024-02-14T17:11:56.927Z,71.86
2024-02-14T17:14:27.840Z,72.67
2024-02-14T17:16:58.062Z,71.82
2024-02-14T17:19:26.286Z,72.83
2024-02-14T17:21:53.625Z,71.93
2024-02-14T17:24:21.033Z,71.80
2024-02-14T17:26:48.018Z,72.42
2024-02-14T17:29:15.434Z,71.64
2024-02-14T17:31:49.684Z,72.73
2024-02-14T17:34:17.128Z,72.98
2024-02-14T17:36:44.510Z,73.80
2024-02-14T17:39:11.919Z,74.63
2024-02-14T17:41:41.585Z,74.79
2024-02-14T17:44:09.331Z,74.00
2024-02-14T17:46:36.477Z,74.03
2024-02-14T17:49:04.400Z,74.75
2024-02-14T17:51:32.651Z,75.43
2024-02-14T17:54:00.107Z,75.31
2024-02-14T17:56:27.124Z,75.17
2024-02-14T17:58:54.620Z,76.24
2024-02-14T18:01:24.393Z,76.40
2024-02-14T18:03:51.702Z,78.01
2024-02-14T18:06:18.961Z,78.84
2024-02-14T18:08:46.334Z,77.55
2024-02-14T18:11:14.254Z,77.69
2024-02-14T18:13:42.165Z,77.61
2024-02-14T18:16:10.429Z,77.30
2024-02-14T18:18:38.050Z,77.07
2024-02-14T18:21:05.889Z,77.07
2024-02-14T18:23:33.625Z,77.16
2024-02-14T18:26:00.727Z,77.73
2024-02-14T18:28:31.933Z,79.58
2024-02-14T18:31:00.045Z,78.47
2024-02-14T18:33:27.757Z,79.02
2024-02-14T18:35:55.052Z,79.96
2024-02-14T18:38:26.774Z,79.56
2024-02-14T18:40:53.881Z,78.85
2024-02-14T18:43:21.541Z,78.33
2024-02-14T18:45:50.944Z,77.83
2024-02-14T18:48:18.291Z,78.28
2024-02-14T18:50:45.501Z,76.58
2024-02-14T18:53:12.715Z,76.92
2024-02-14T18:55:39.753Z,76.24
2024-02-14T18:58:07.251Z,75.04
2024-02-14T19:00:35.175Z,75.54
2024-02-14T19:03:03.984Z,75.62
2024-02-14T19:05:31.079Z,75.83
2024-02-14T19:07:58.488Z,76.11
2024-02-14T19:10:27.840Z,75.94
2024-02-14T19:12:59.731Z,76.39
2024-02-14T19:15:26.894Z,74.94
2024-02-14T19:17:54.421Z,76.25
2024-02-14T19:20:21.666Z,75.04
2024-02-14T19:22:49.246Z,75.34
2024-02-14T19:25:16.349Z,74.43
2024-02-14T19:27:43.730Z,73.76
2024-02-14T19:30:10.816Z,73.68
2024-02-14T19:32:40.715Z,73.72
2024-02-14T19:35:08.106Z,74.64
2024-02-14T19:37:35.615Z,75.05
2024-02-14T19:40:07.784Z,74.54
2024-02-14T19:42:35.293Z,74.33
2024-02-14T19:45:02.303Z,75.29
2024-02-14T19:47:30.297Z,76.11
2024-02-14T19:49:57.872Z,75.58
2024-02-14T19:52:27.004Z,76.81
2024-02-14T19:54:54.337Z,76.94
2024-02-14T19:57:22.154Z,77.43
2024-02-14T19:59:49.357Z,78.53
2024-02-14T20:02:17.022Z,77.80
2024-02-14T20:04:45.168Z,79.04
2024-02-14T20:07:12.853Z,79.01
2024-02-14T20:09:41.239Z,79.70
2024-02-14T20:12:11.281Z,80.85
2024-02-14T20:14:40.055Z,83.39
2024-02-14T20:17:07.960Z,83.01
2024-02-14T20:19:36.265Z,82.71
2024-02-14T20:22:03.922Z,83.96
2024-02-14T20:24:34.523Z,84.44
2024-02-14T20:27:01.941Z,84.08
2024-02-14T20:29:29.063Z,85.42
2024-02-14T20:31:58.985Z,85.71
2024-02-14T20:34:28.510Z,86.09
2024-02-14T20:36:56.123Z,85.76
2024-02-14T20:39:24.707Z,86.74
2024-02-14T20:41:57.272Z,87.28
2024-02-14T20:44:26.818Z,88.64
2024-02-14T20:46:54.383Z,87.46
2024-02-14T20:49:24.116Z,87.10
2024-02-14T20:51:51.596Z,91.23
2024-02-14T20:54:18.780Z,88.87
2024-02-14T20:56:46.323Z,89.38
2024-02-14T20:59:16.821Z,89.92
2024-02-14T21:01:44.632Z,89.69
2024-02-14T21:04:11.791Z,90.52
2024-02-14T21:06:39.513Z,89.59
2024-02-14T21:09:07.327Z,89.65
2024-02-14T21:11:37.225Z,92.39
2024-02-14T21:14:04.136Z,91.60
2024-02-14T21:19:24.711Z,90.59
2024-02-14T21:21:52.133Z,88.94
2024-02-14T21:24:19.560Z,88.04
2024-02-14T21:26:49.887Z,87.71
2024-02-14T21:29:16.865Z,87.73
2024-02-14T21:31:44.567Z,87.37
2024-02-14T21:34:11.881Z,86.62
2024-02-14T21:36:41.807Z,84.34
2024-02-14T21:39:12.314Z,84.54
2024-02-14T21:41:39.734Z,83.65
2024-02-14T21:44:06.963Z,84.22
2024-02-14T21:46:37.068Z,85.24
2024-02-14T21:49:15.788Z,86.66
2024-02-14T21:51:49.427Z,85.77
2024-02-14T21:54:16.447Z,86.36
2024-02-14T21:56:44.360Z,86.93
2024-02-14T21:59:12.031Z,84.83
2024-02-14T22:01:39.576Z,84.47
2024-02-14T22:04:06.633Z,84.79
2024-02-14T22:06:34.449Z,85.96
2024-02-14T22:09:01.675Z,85.71
2024-02-14T22:11:29.259Z,87.43
2024-02-14T22:13:57.580Z,87.86
2024-02-14T22:16:26.158Z,90.26
2024-02-14T22:18:54.080Z,88.32
2024-02-14T22:21:21.564Z,91.40
2024-02-14T22:23:48.925Z,90.46
2024-02-14T22:26:17.097Z,92.06
2024-02-14T22:28:44.535Z,92.17
2024-02-14T22:31:12.827Z,93.60
2024-02-14T22:33:40.200Z,91.63
2024-02-14T22:36:11.924Z,91.87
2024-02-14T22:38:39.344Z,94.02
2024-02-14T22:41:08.376Z,92.23
2024-02-14T22:43:35.460Z,92.41
2024-02-14T22:46:02.989Z,92.71
2024-02-14T22:48:32.958Z,91.54
2024-02-14T22:51:00.659Z,91.49
2024-02-14T22:53:28.207Z,92.43
2024-02-14T22:55:55.687Z,93.18
2024-02-14T22:58:22.799Z,92.87
2024-02-14T23:00:50.174Z,94.67
2024-02-14T23:03:17.718Z,95.41
2024-02-14T23:05:45.428Z,96.45
2024-02-14T23:08:12.654Z,96.38
2024-02-14T23:10:40.417Z,96.76
2024-02-14T23:13:07.984Z,98.88
2024-02-14T23:15:35.447Z,98.27
2024-02-14T23:18:02.506Z,100.00
2024-02-14T23:20:30.796Z,100.00
2024-02-14T23:22:57.832Z,100.00
2024-02-14T23:25:25.262Z,100.00
2024-02-14T23:27:52.550Z,100.00
2024-02-14T23:30:20.216Z,100.00
2024-02-14T23:32:47.396Z,100.00
2024-02-14T23:35:15.188Z,100.00
2024-02-14T23:37:45.695Z,100.00
2024-02-14T23:40:13.540Z,100.00
2024-02-14T23:42:43.590Z,100.00
2024-02-14T23:45:12.274Z,100.00
2024-02-14T23:47:40.206Z,100.00
2024-02-14T23:50:11.791Z,100.00
2024-02-14T23:52:40.132Z,100.00
2024-02-14T23:55:10.886Z,100.00
2024-02-14T23:57:38.061Z,100.00
